• Join FlightAware (Why Join?)
  • Login
  • US Flag 
05:08PM EDT


 

Airport Tracker/Info


-or-


 

Live Flight TrackerFlight Track Log ✈ SWA1524 ✈ 17-May-2013 ✈ KDCA - KSTL

Flight Track Log - Related Links

Times and Time Zones

All times are in EDT time to prevent confusion due to time zone crossing. See the SWA1524 flight status page for this flight to view local times or setup timezone preferences in your user account.

Time Position Orientation Groundspeed Altitude Reporting Facility
EDT Latitude Longitude Course Direction KTS MPH feet Rate Location/Type
12:23PM 38.8833 -77.0667 322° Northwest 168 193 1,600  Level Potomac TRACON
12:24PM 38.9333 -77.1167 322° Northwest 242 278 3,900 2,820 Climbing Potomac TRACON
12:25PM 38.9667 -77.1667 311° West 248 285 7,000 3,540 Climbing Potomac TRACON
12:26PM 38.9833 -77.2667 282° West 269 310 10,700 3,000 Climbing Potomac TRACON
12:28PM 39.0064 -77.5256 277° West 334 384 17,000 2,700 Climbing Washington Center
12:29PM 38.9978 -77.6561 265° West 368 423 19,700 2,580 Climbing Washington Center
12:30PM 38.9894 -77.7736 265° West 373 429 22,200 2,280 Climbing Washington Center
12:31PM 38.9803 -77.9308 266° West 385 443 24,400 2,040 Climbing Washington Center
12:32PM 38.9692 -78.0772 264° West 408 470 26,400 1,980 Climbing Washington Center
12:33PM 38.9681 -78.2214 269° West 413 475 28,300 1,860 Climbing Washington Center
12:34PM 38.9792 -78.3739 275° West 419 482 30,200 1,980 Climbing Washington Center
12:35PM 38.9903 -78.5239 275° West 424 488 32,400 1,920 Climbing Washington Center
12:36PM 38.9992 -78.6714 274° West 424 488 34,100 1,620 Climbing Washington Center
12:37PM 39.0100 -78.8161 276° West 424 488 35,700 1,560 Climbing Washington Center
12:38PM 39.0183 -78.9606 274° West 419 482 37,300 1,080 Climbing Washington Center
12:39PM 39.0289 -79.1028 276° West 414 476 38,000 300 Climbing Washington Center
12:40PM 39.0372 -79.2475 274° West 414 476 38,000  Level Washington Center
12:41PM 39.0453 -79.3897 274° West 407 468 38,000  Level Washington Center
12:42PM 39.0536 -79.5183 275° West 407 468 38,000  Level Washington Center
12:43PM 39.0614 -79.6631 274° West 407 468 38,000  Level Washington Center
12:44PM 39.0708 -79.8108 275° West 407 468 38,000  Level Washington Center
12:45PM 39.0761 -79.9528 273° West 407 468 38,000  Level Washington Center
12:47PM 39.0914 -80.2656 274° West 411 473 38,000  Level Indianapolis Center
12:48PM 39.0972 -80.4106 273° West 407 468 38,000  Level Indianapolis Center
12:49PM 39.1047 -80.5564 274° West 408 470 38,000  Level Indianapolis Center
12:50PM 39.1114 -80.7033 273° West 413 475 38,000  Level Indianapolis Center
12:51PM 39.1181 -80.8486 273° West 409 471 38,000  Level Indianapolis Center
12:52PM 39.1247 -80.9950 273° West 410 472 38,000  Level Indianapolis Center
12:53PM 39.1414 -81.1711 277° West 415 478 38,000  Level Indianapolis Center
12:54PM 39.1642 -81.3153 282° West 414 476 38,000  Level Indianapolis Center
12:55PM 39.1853 -81.4603 281° West 414 476 38,000  Level Indianapolis Center
12:57PM 39.2072 -81.6064 281° West 418 481 38,000  Level Indianapolis Center
12:58PM 39.2289 -81.7508 281° West 414 476 38,000  Level Indianapolis Center
12:59PM 39.2547 -81.9261 281° West 416 479 38,000  Level Indianapolis Center
01:00PM 39.2756 -82.0725 280° West 418 481 38,000  Level Indianapolis Center
01:01PM 39.2972 -82.2167 281° West 413 475 38,000  Level Indianapolis Center
01:02PM 39.3172 -82.3636 280° West 416 479 38,000  Level Indianapolis Center
01:03PM 39.3392 -82.5144 281° West 412 474 38,000  Level Indianapolis Center
01:04PM 39.3592 -82.6628 280° West 414 476 38,000  Level Indianapolis Center
01:05PM 39.3800 -82.8111 280° West 414 476 38,000  Level Indianapolis Center
01:06PM 39.4006 -82.9597 280° West 418 481 38,000  Level Indianapolis Center
01:07PM 39.4244 -83.1342 280° West 417 480 38,000  Level Indianapolis Center
01:08PM 39.4442 -83.2836 280° West 418 481 38,000  Level Indianapolis Center
01:09PM 39.4636 -83.4336 280° West 416 479 38,000  Level Indianapolis Center
01:10PM 39.4683 -83.5869 272° West 421 484 38,000  Level Indianapolis Center
01:11PM 39.4689 -83.7378 270° West 416 479 38,000  Level Indianapolis Center
01:12PM 39.4697 -83.8908 270° West 418 481 38,000  Level Indianapolis Center
01:13PM 39.4694 -84.0428 270° West 417 480 38,000  Level Indianapolis Center
01:14PM 39.4683 -84.1961 270° West 420 483 38,000  Level Indianapolis Center
01:15PM 39.4675 -84.3494 270° West 422 486 38,000  Level Indianapolis Center
01:16PM 39.4675 -84.5267 270° West 420 483 38,000  Level Indianapolis Center
01:17PM 39.4658 -84.6792 269° West 420 483 38,000  Level Indianapolis Center
01:18PM 39.4647 -84.8331 270° West 422 486 38,000  Level Indianapolis Center
01:19PM 39.4625 -84.9850 269° West 423 487 38,000  Level Indianapolis Center
01:20PM 39.4611 -85.1386 269° West 426 490 38,000  Level Indianapolis Center
01:21PM 39.4597 -85.2911 269° West 425 489 38,000  Level Indianapolis Center
01:22PM 39.4569 -85.4444 269° West 426 490 38,000  Level Indianapolis Center
01:23PM 39.4550 -85.6294 269° West 429 494 38,000 -180 Level Indianapolis Center
01:24PM 39.4517 -85.7836 268° West 429 494 37,700 -660 Descending Indianapolis Center
01:25PM 39.4483 -85.9386 268° West 429 494 36,700 -840 Descending Indianapolis Center
01:27PM 39.4461 -86.0956 269° West 433 498 36,000 -360 Descending Indianapolis Center
01:28PM 39.4419 -86.2522 268° West 433 498 36,000  Level Indianapolis Center
01:29PM 39.4383 -86.4097 268° West 434 499 36,000  Level Indianapolis Center
01:30PM 39.4356 -86.5653 269° West 431 496 36,000  Level Indianapolis Center
01:31PM 39.4319 -86.7211 268° West 431 496 36,000  Level Indianapolis Center
01:32PM 39.4272 -86.9083 268° West 432 497 36,000  Level Indianapolis Center
01:33PM 39.4219 -87.0631 268° West 433 498 36,000  Level Indianapolis Center
01:34PM 39.4186 -87.2194 268° West 434 499 36,000 -480 Level Indianapolis Center
01:35PM 39.4147 -87.3750 268° West 434 499 35,100 -900 Descending Indianapolis Center
01:36PM 39.4092 -87.5344 267° West 442 509 34,200 -960 Descending Indianapolis Center
01:37PM 39.4031 -87.6956 267° West 448 516 33,200 -1,020 Descending Indianapolis Center
01:38PM 39.3969 -87.8894 268° West 449 517 32,100 -1,020 Descending Indianapolis Center
01:39PM 39.3936 -87.9869 267° West 449 517 31,500 -960 Descending Kansas City Center
01:40PM 39.3664 -88.1464 258° West 454 522 30,500 -720 Descending Kansas City Center
01:41PM 39.3264 -88.2989 251° West 452 520 30,000 -240 Descending Kansas City Center
01:42PM 39.2781 -88.4831 251° West 450 518 30,000 -300 Level Kansas City Center
01:43PM 39.2411 -88.6178 251° West 456 525 29,400 -1,020 Descending Kansas City Center
01:44PM 39.1928 -88.7928 250° West 438 504 28,000 -1,200 Descending Kansas City Center
01:45PM 39.1661 -88.9336 256° West 416 479 27,000 -1,260 Descending Kansas City Center
01:46PM 39.1828 -89.0778 279° West 412 474 25,500 -2,580 Descending Kansas City Center
01:47PM 39.1556 -89.2244 257° West 399 459 21,700 -3,000 Descending Kansas City Center
01:48PM 39.1014 -89.3494 241° Southwest 399 459 19,400 -2,280 Descending Kansas City Center
01:49PM 39.0461 -89.4778 241° Southwest 384 442 17,000 -2,160 Descending Kansas City Center
01:50PM 38.9969 -89.5931 241° Southwest 372 428 15,000 -1,080 Descending Kansas City Center
01:51PM 38.9572 -89.7167 248° West 348 400 14,800 -1,020 Descending Kansas City Center
01:52PM 38.9225 -89.8269 248° West 337 388 13,000 -1,680 Descending Kansas City Center
01:53PM 38.8903 -89.9264 247° West 327 376 11,400 -1,380 Descending Kansas City Center
01:54PM 38.8586 -90.0286 248° West 316 364 10,200 -1,020 Descending Kansas City Center
01:55PM 38.8303 -90.1178 248° West 281 323 9,400 -1,140 Descending Kansas City Center
01:56PM 38.8025 -90.2269 252° West 280 322 7,900 -1,200 Descending Kansas City Center
01:57PM 38.8383 -90.3094 299° West 273 314 7,000 -1,020 Descending Kansas City Center
01:58PM 38.8739 -90.3869 301° West 260 299 5,900 -1,020 Descending Kansas City Center
01:59PM 38.9097 -90.4653 300° West 258 297 5,000 -540 Descending Kansas City Center
02:00PM 38.9489 -90.5508 301° West 245 282 4,800 -540 Descending Kansas City Center
02:01PM 38.9631 -90.6183 285° West 236 272 3,900 -660 Descending Kansas City Center
02:02PM 38.9136 -90.6047 168° South 214 246 3,500 -480 Descending Kansas City Center
02:03PM 38.8669 -90.5725 152° Southeast 201 231 3,000 -240 Descending Kansas City Center
02:04PM 38.8286 -90.5233 135° Southeast 199 229 3,000 -300 Level Kansas City Center
02:05PM 38.8036 -90.4706 121° Southeast 185 213 2,400 -720 Descending Kansas City Center
02:07PM 38.7806 -90.4264 124° Southeast 166 191 1,600 -840 Descending Kansas City Center
02:08PM 38.7578 -90.3781 121° Southeast 143 165 700 -900 Descending Kansas City Center